sensor_id;sensor_type;location;lat;lon;timestamp;temperature;humidity
37782;DHT22;23621;50.878;4.584;2023-05-21T00:00:03;20.70;63.70
37782;DHT22;23621;50.878;4.584;2023-05-21T00:02:56;20.70;63.80
37782;DHT22;23621;50.878;4.584;2023-05-21T00:05:45;20.60;63.70
37782;DHT22;23621;50.878;4.584;2023-05-21T00:08:33;20.60;63.80
37782;DHT22;23621;50.878;4.584;2023-05-21T00:11:20;20.50;63.90
37782;DHT22;23621;50.878;4.584;2023-05-21T00:14:08;20.50;64.10
37782;DHT22;23621;50.878;4.584;2023-05-21T00:16:55;20.40;64.00
37782;DHT22;23621;50.878;4.584;2023-05-21T00:19:42;20.40;64.00
37782;DHT22;23621;50.878;4.584;2023-05-21T00:22:30;20.40;64.20
37782;DHT22;23621;50.878;4.584;2023-05-21T00:25:19;20.30;64.10
37782;DHT22;23621;50.878;4.584;2023-05-21T00:28:06;20.30;64.20
37782;DHT22;23621;50.878;4.584;2023-05-21T00:30:54;20.30;64.30
37782;DHT22;23621;50.878;4.584;2023-05-21T00:33:42;20.20;64.30
37782;DHT22;23621;50.878;4.584;2023-05-21T00:36:29;20.10;64.30
37782;DHT22;23621;50.878;4.584;2023-05-21T00:39:17;20.10;64.50
37782;DHT22;23621;50.878;4.584;2023-05-21T00:42:04;20.10;64.40
37782;DHT22;23621;50.878;4.584;2023-05-21T00:44:55;20.00;64.30
37782;DHT22;23621;50.878;4.584;2023-05-21T00:47:43;20.00;64.40
37782;DHT22;23621;50.878;4.584;2023-05-21T00:50:32;20.00;64.50
37782;DHT22;23621;50.878;4.584;2023-05-21T00:53:19;19.90;64.50
37782;DHT22;23621;50.878;4.584;2023-05-21T00:56:06;19.90;64.50
37782;DHT22;23621;50.878;4.584;2023-05-21T00:58:55;19.80;64.40
37782;DHT22;23621;50.878;4.584;2023-05-21T01:01:45;19.80;64.60
37782;DHT22;23621;50.878;4.584;2023-05-21T01:04:40;19.80;64.60
37782;DHT22;23621;50.878;4.584;2023-05-21T01:07:27;19.70;64.50
37782;DHT22;23621;50.878;4.584;2023-05-21T01:10:14;19.70;64.50
37782;DHT22;23621;50.878;4.584;2023-05-21T01:13:02;19.70;64.60
37782;DHT22;23621;50.878;4.584;2023-05-21T01:15:49;19.70;64.60
37782;DHT22;23621;50.878;4.584;2023-05-21T01:18:37;19.60;64.80
37782;DHT22;23621;50.878;4.584;2023-05-21T01:21:25;19.60;64.80
37782;DHT22;23621;50.878;4.584;2023-05-21T01:24:14;19.60;64.90
37782;DHT22;23621;50.878;4.584;2023-05-21T01:27:02;19.60;64.80
37782;DHT22;23621;50.878;4.584;2023-05-21T01:29:52;19.60;64.70
37782;DHT22;23621;50.878;4.584;2023-05-21T01:35:40;19.60;64.60
37782;DHT22;23621;50.878;4.584;2023-05-21T01:38:38;19.50;64.60
37782;DHT22;23621;50.878;4.584;2023-05-21T01:41:28;19.50;64.70
37782;DHT22;23621;50.878;4.584;2023-05-21T01:44:19;19.40;64.60
37782;DHT22;23621;50.878;4.584;2023-05-21T01:47:08;19.40;64.80
37782;DHT22;23621;50.878;4.584;2023-05-21T01:49:58;19.40;64.90
37782;DHT22;23621;50.878;4.584;2023-05-21T01:52:51;19.40;64.80
37782;DHT22;23621;50.878;4.584;2023-05-21T01:55:39;19.40;64.80
37782;DHT22;23621;50.878;4.584;2023-05-21T01:58:27;19.30;64.60
37782;DHT22;23621;50.878;4.584;2023-05-21T02:01:15;19.30;64.50
37782;DHT22;23621;50.878;4.584;2023-05-21T02:04:02;19.20;64.70
37782;DHT22;23621;50.878;4.584;2023-05-21T02:06:49;19.20;64.90
37782;DHT22;23621;50.878;4.584;2023-05-21T02:09:37;19.10;65.00
37782;DHT22;23621;50.878;4.584;2023-05-21T02:12:24;19.20;65.10
37782;DHT22;23621;50.878;4.584;2023-05-21T02:15:12;19.10;65.20
37782;DHT22;23621;50.878;4.584;2023-05-21T02:18:04;19.10;65.20
37782;DHT22;23621;50.878;4.584;2023-05-21T02:20:51;19.10;65.10
37782;DHT22;23621;50.878;4.584;2023-05-21T02:23:38;19.00;65.00
37782;DHT22;23621;50.878;4.584;2023-05-21T02:26:25;19.00;65.00
37782;DHT22;23621;50.878;4.584;2023-05-21T02:29:13;19.00;65.10
37782;DHT22;23621;50.878;4.584;2023-05-21T02:32:00;19.00;65.20
37782;DHT22;23621;50.878;4.584;2023-05-21T02:34:48;18.90;65.30
37782;DHT22;23621;50.878;4.584;2023-05-21T02:37:36;18.90;65.30
37782;DHT22;23621;50.878;4.584;2023-05-21T02:40:24;18.90;65.30
37782;DHT22;23621;50.878;4.584;2023-05-21T02:43:11;18.90;65.30
37782;DHT22;23621;50.878;4.584;2023-05-21T02:46:00;18.90;65.50
37782;DHT22;23621;50.878;4.584;2023-05-21T02:48:47;18.90;65.50
37782;DHT22;23621;50.878;4.584;2023-05-21T02:51:35;18.90;65.60
37782;DHT22;23621;50.878;4.584;2023-05-21T02:54:22;18.80;65.60
37782;DHT22;23621;50.878;4.584;2023-05-21T02:57:09;18.80;65.60
37782;DHT22;23621;50.878;4.584;2023-05-21T02:59:57;18.80;65.70
37782;DHT22;23621;50.878;4.584;2023-05-21T03:02:44;18.80;65.70
37782;DHT22;23621;50.878;4.584;2023-05-21T03:05:32;18.70;65.80
37782;DHT22;23621;50.878;4.584;2023-05-21T03:08:19;18.70;65.80
37782;DHT22;23621;50.878;4.584;2023-05-21T03:11:07;18.70;65.90
37782;DHT22;23621;50.878;4.584;2023-05-21T03:13:54;18.60;65.80
37782;DHT22;23621;50.878;4.584;2023-05-21T03:16:42;18.60;65.80
37782;DHT22;23621;50.878;4.584;2023-05-21T03:19:30;18.60;65.90
37782;DHT22;23621;50.878;4.584;2023-05-21T03:22:20;18.60;66.00
37782;DHT22;23621;50.878;4.584;2023-05-21T03:25:08;18.60;66.00
37782;DHT22;23621;50.878;4.584;2023-05-21T03:27:55;18.60;66.00
37782;DHT22;23621;50.878;4.584;2023-05-21T03:30:43;18.50;66.00
37782;DHT22;23621;50.878;4.584;2023-05-21T03:33:35;18.60;66.20
37782;DHT22;23621;50.878;4.584;2023-05-21T03:36:24;18.60;66.00
37782;DHT22;23621;50.878;4.584;2023-05-21T03:39:11;18.50;66.00
37782;DHT22;23621;50.878;4.584;2023-05-21T03:41:58;18.50;66.10
37782;DHT22;23621;50.878;4.584;2023-05-21T03:44:46;18.50;66.20
37782;DHT22;23621;50.878;4.584;2023-05-21T03:47:33;18.50;66.30
37782;DHT22;23621;50.878;4.584;2023-05-21T03:50:22;18.50;66.40
37782;DHT22;23621;50.878;4.584;2023-05-21T03:53:09;18.50;66.30
37782;DHT22;23621;50.878;4.584;2023-05-21T03:55:56;18.40;66.20
37782;DHT22;23621;50.878;4.584;2023-05-21T03:58:44;18.40;66.30
37782;DHT22;23621;50.878;4.584;2023-05-21T04:01:31;18.40;66.40
37782;DHT22;23621;50.878;4.584;2023-05-21T04:04:19;18.40;66.40
37782;DHT22;23621;50.878;4.584;2023-05-21T04:07:06;18.40;66.50
37782;DHT22;23621;50.878;4.584;2023-05-21T04:10:00;18.40;66.70
37782;DHT22;23621;50.878;4.584;2023-05-21T04:12:47;18.40;66.70
37782;DHT22;23621;50.878;4.584;2023-05-21T04:15:38;18.30;66.60
37782;DHT22;23621;50.878;4.584;2023-05-21T04:18:26;18.30;66.60
37782;DHT22;23621;50.878;4.584;2023-05-21T04:21:13;18.30;66.70
37782;DHT22;23621;50.878;4.584;2023-05-21T04:24:00;18.30;66.80
37782;DHT22;23621;50.878;4.584;2023-05-21T04:26:48;18.30;66.90
37782;DHT22;23621;50.878;4.584;2023-05-21T04:29:35;18.40;67.00
37782;DHT22;23621;50.878;4.584;2023-05-21T04:32:23;18.40;67.10
37782;DHT22;23621;50.878;4.584;2023-05-21T04:35:11;18.40;67.10
37782;DHT22;23621;50.878;4.584;2023-05-21T04:38:01;18.40;67.30
37782;DHT22;23621;50.878;4.584;2023-05-21T04:40:50;18.50;67.40
37782;DHT22;23621;50.878;4.584;2023-05-21T04:43:37;18.50;67.40
37782;DHT22;23621;50.878;4.584;2023-05-21T04:46:29;18.50;67.50
37782;DHT22;23621;50.878;4.584;2023-05-21T04:49:17;18.50;67.40
37782;DHT22;23621;50.878;4.584;2023-05-21T04:52:04;18.50;67.50
37782;DHT22;23621;50.878;4.584;2023-05-21T04:54:51;18.50;67.60
37782;DHT22;23621;50.878;4.584;2023-05-21T04:57:40;18.60;67.90
37782;DHT22;23621;50.878;4.584;2023-05-21T05:00:27;18.60;67.90
37782;DHT22;23621;50.878;4.584;2023-05-21T05:03:14;18.60;68.00
37782;DHT22;23621;50.878;4.584;2023-05-21T05:06:02;18.60;68.00
37782;DHT22;23621;50.878;4.584;2023-05-21T05:08:50;18.60;68.10
37782;DHT22;23621;50.878;4.584;2023-05-21T05:11:37;18.60;68.20
37782;DHT22;23621;50.878;4.584;2023-05-21T05:14:25;18.70;68.30
37782;DHT22;23621;50.878;4.584;2023-05-21T05:17:12;18.70;68.40
37782;DHT22;23621;50.878;4.584;2023-05-21T05:20:02;18.80;68.60
37782;DHT22;23621;50.878;4.584;2023-05-21T05:22:49;18.80;68.50
37782;DHT22;23621;50.878;4.584;2023-05-21T05:25:37;18.90;68.70
37782;DHT22;23621;50.878;4.584;2023-05-21T05:28:24;18.90;68.70
37782;DHT22;23621;50.878;4.584;2023-05-21T05:31:12;18.90;68.80
37782;DHT22;23621;50.878;4.584;2023-05-21T05:33:59;19.00;69.00
37782;DHT22;23621;50.878;4.584;2023-05-21T05:36:47;19.10;69.10
37782;DHT22;23621;50.878;4.584;2023-05-21T05:39:34;19.10;69.10
37782;DHT22;23621;50.878;4.584;2023-05-21T05:42:21;19.10;69.10
37782;DHT22;23621;50.878;4.584;2023-05-21T05:45:09;19.20;69.20
37782;DHT22;23621;50.878;4.584;2023-05-21T05:47:57;19.20;69.40
37782;DHT22;23621;50.878;4.584;2023-05-21T05:50:44;19.30;69.50
37782;DHT22;23621;50.878;4.584;2023-05-21T05:53:32;19.30;69.50
37782;DHT22;23621;50.878;4.584;2023-05-21T05:56:19;19.40;69.50
37782;DHT22;23621;50.878;4.584;2023-05-21T05:59:07;19.40;69.50
37782;DHT22;23621;50.878;4.584;2023-05-21T06:01:55;19.50;69.40
37782;DHT22;23621;50.878;4.584;2023-05-21T06:04:42;19.60;69.50
37782;DHT22;23621;50.878;4.584;2023-05-21T06:07:29;19.70;69.60
37782;DHT22;23621;50.878;4.584;2023-05-21T06:10:16;19.70;69.40
37782;DHT22;23621;50.878;4.584;2023-05-21T06:13:06;19.80;69.40
37782;DHT22;23621;50.878;4.584;2023-05-21T06:15:53;19.90;69.30
37782;DHT22;23621;50.878;4.584;2023-05-21T06:18:40;19.90;69.20
37782;DHT22;23621;50.878;4.584;2023-05-21T06:21:27;20.00;68.80
37782;DHT22;23621;50.878;4.584;2023-05-21T06:24:14;20.20;68.70
37782;DHT22;23621;50.878;4.584;2023-05-21T06:27:02;20.30;68.40
37782;DHT22;23621;50.878;4.584;2023-05-21T06:29:49;20.30;68.20
37782;DHT22;23621;50.878;4.584;2023-05-21T06:32:37;20.50;68.10
37782;DHT22;23621;50.878;4.584;2023-05-21T06:35:24;20.50;68.10
37782;DHT22;23621;50.878;4.584;2023-05-21T06:38:11;20.60;68.00
37782;DHT22;23621;50.878;4.584;2023-05-21T06:40:58;20.70;68.10
37782;DHT22;23621;50.878;4.584;2023-05-21T06:43:45;20.80;67.70
37782;DHT22;23621;50.878;4.584;2023-05-21T06:46:33;20.80;67.60
37782;DHT22;23621;50.878;4.584;2023-05-21T06:49:21;20.90;67.60
37782;DHT22;23621;50.878;4.584;2023-05-21T06:52:08;20.90;67.40
37782;DHT22;23621;50.878;4.584;2023-05-21T06:54:56;21.00;67.50
37782;DHT22;23621;50.878;4.584;2023-05-21T06:57:43;21.10;67.50
37782;DHT22;23621;50.878;4.584;2023-05-21T07:00:30;21.20;67.50
37782;DHT22;23621;50.878;4.584;2023-05-21T07:03:17;21.30;67.40
37782;DHT22;23621;50.878;4.584;2023-05-21T07:06:04;21.40;67.40
37782;DHT22;23621;50.878;4.584;2023-05-21T07:08:52;21.40;67.30
37782;DHT22;23621;50.878;4.584;2023-05-21T07:11:39;21.50;67.90
37782;DHT22;23621;50.878;4.584;2023-05-21T07:14:26;21.60;67.30
37782;DHT22;23621;50.878;4.584;2023-05-21T07:17:14;21.70;67.10
37782;DHT22;23621;50.878;4.584;2023-05-21T07:20:02;21.80;67.20
37782;DHT22;23621;50.878;4.584;2023-05-21T07:22:51;21.80;67.00
37782;DHT22;23621;50.878;4.584;2023-05-21T07:25:38;21.90;66.80
37782;DHT22;23621;50.878;4.584;2023-05-21T07:28:25;22.00;66.90
37782;DHT22;23621;50.878;4.584;2023-05-21T07:31:12;22.10;66.90
37782;DHT22;23621;50.878;4.584;2023-05-21T07:33:59;22.10;66.50
37782;DHT22;23621;50.878;4.584;2023-05-21T07:36:47;22.10;66.80
37782;DHT22;23621;50.878;4.584;2023-05-21T07:39:34;22.20;66.70
37782;DHT22;23621;50.878;4.584;2023-05-21T07:42:21;22.30;66.70
37782;DHT22;23621;50.878;4.584;2023-05-21T07:45:08;22.30;66.60
37782;DHT22;23621;50.878;4.584;2023-05-21T07:47:55;22.40;66.70
37782;DHT22;23621;50.878;4.584;2023-05-21T07:50:43;22.40;66.50
37782;DHT22;23621;50.878;4.584;2023-05-21T07:53:30;22.50;66.20
37782;DHT22;23621;50.878;4.584;2023-05-21T07:56:19;22.50;66.50
37782;DHT22;23621;50.878;4.584;2023-05-21T07:59:06;22.50;66.40
37782;DHT22;23621;50.878;4.584;2023-05-21T08:01:54;22.50;66.40
37782;DHT22;23621;50.878;4.584;2023-05-21T08:04:41;22.50;66.30
37782;DHT22;23621;50.878;4.584;2023-05-21T08:07:29;22.50;66.50
37782;DHT22;23621;50.878;4.584;2023-05-21T08:10:17;22.50;66.40
37782;DHT22;23621;50.878;4.584;2023-05-21T08:13:05;22.50;66.60
37782;DHT22;23621;50.878;4.584;2023-05-21T08:15:52;22.50;66.50
37782;DHT22;23621;50.878;4.584;2023-05-21T08:18:39;22.50;66.50
37782;DHT22;23621;50.878;4.584;2023-05-21T08:21:27;22.50;66.70
37782;DHT22;23621;50.878;4.584;2023-05-21T08:24:14;22.50;66.50
37782;DHT22;23621;50.878;4.584;2023-05-21T08:27:01;22.60;67.10
37782;DHT22;23621;50.878;4.584;2023-05-21T08:29:48;22.70;67.00
37782;DHT22;23621;50.878;4.584;2023-05-21T08:32:36;22.70;66.80
37782;DHT22;23621;50.878;4.584;2023-05-21T08:35:23;22.80;67.10
37782;DHT22;23621;50.878;4.584;2023-05-21T08:38:10;22.80;66.80
37782;DHT22;23621;50.878;4.584;2023-05-21T08:40:58;22.90;66.60
37782;DHT22;23621;50.878;4.584;2023-05-21T08:43:45;22.90;66.70
37782;DHT22;23621;50.878;4.584;2023-05-21T08:46:36;22.90;66.60
37782;DHT22;23621;50.878;4.584;2023-05-21T08:49:25;23.00;66.70
37782;DHT22;23621;50.878;4.584;2023-05-21T08:52:13;23.00;66.70
37782;DHT22;23621;50.878;4.584;2023-05-21T08:55:04;23.10;66.80
37782;DHT22;23621;50.878;4.584;2023-05-21T08:57:52;23.10;66.70
37782;DHT22;23621;50.878;4.584;2023-05-21T09:00:40;23.20;66.70
37782;DHT22;23621;50.878;4.584;2023-05-21T09:03:27;23.20;66.70
37782;DHT22;23621;50.878;4.584;2023-05-21T09:06:15;23.30;66.50
37782;DHT22;23621;50.878;4.584;2023-05-21T09:09:07;23.40;66.50
37782;DHT22;23621;50.878;4.584;2023-05-21T09:11:56;23.50;66.80
37782;DHT22;23621;50.878;4.584;2023-05-21T09:14:44;23.50;66.50
37782;DHT22;23621;50.878;4.584;2023-05-21T09:17:33;23.50;67.30
37782;DHT22;23621;50.878;4.584;2023-05-21T09:20:24;23.60;66.50
37782;DHT22;23621;50.878;4.584;2023-05-21T09:23:13;23.60;66.50
37782;DHT22;23621;50.878;4.584;2023-05-21T09:26:09;23.70;66.70
37782;DHT22;23621;50.878;4.584;2023-05-21T09:28:57;23.70;66.60
37782;DHT22;23621;50.878;4.584;2023-05-21T09:31:45;23.80;66.60
37782;DHT22;23621;50.878;4.584;2023-05-21T09:34:34;23.90;66.50
37782;DHT22;23621;50.878;4.584;2023-05-21T09:37:21;24.00;67.10
37782;DHT22;23621;50.878;4.584;2023-05-21T09:40:20;24.10;66.80
37782;DHT22;23621;50.878;4.584;2023-05-21T09:43:07;24.10;66.30
37782;DHT22;23621;50.878;4.584;2023-05-21T09:45:55;24.20;66.00
37782;DHT22;23621;50.878;4.584;2023-05-21T09:48:46;24.20;66.40
37782;DHT22;23621;50.878;4.584;2023-05-21T09:51:37;24.30;66.50
37782;DHT22;23621;50.878;4.584;2023-05-21T09:54:24;24.40;66.70
37782;DHT22;23621;50.878;4.584;2023-05-21T09:57:12;24.50;66.70
37782;DHT22;23621;50.878;4.584;2023-05-21T10:00:00;24.60;66.20
37782;DHT22;23621;50.878;4.584;2023-05-21T10:02:47;24.70;66.60
37782;DHT22;23621;50.878;4.584;2023-05-21T10:05:35;24.70;66.20
37782;DHT22;23621;50.878;4.584;2023-05-21T10:08:25;24.70;66.00
37782;DHT22;23621;50.878;4.584;2023-05-21T10:11:13;24.70;65.90
37782;DHT22;23621;50.878;4.584;2023-05-21T10:14:05;24.70;65.90
37782;DHT22;23621;50.878;4.584;2023-05-21T10:16:55;24.70;66.00
37782;DHT22;23621;50.878;4.584;2023-05-21T10:19:43;24.80;65.90
37782;DHT22;23621;50.878;4.584;2023-05-21T10:22:32;24.80;66.40
37782;DHT22;23621;50.878;4.584;2023-05-21T10:25:20;24.90;66.40
37782;DHT22;23621;50.878;4.584;2023-05-21T10:28:08;25.00;66.10
37782;DHT22;23621;50.878;4.584;2023-05-21T10:30:55;25.10;66.00
37782;DHT22;23621;50.878;4.584;2023-05-21T10:33:42;25.20;65.80
37782;DHT22;23621;50.878;4.584;2023-05-21T10:36:29;25.20;66.20
37782;DHT22;23621;50.878;4.584;2023-05-21T10:39:19;25.30;65.90
37782;DHT22;23621;50.878;4.584;2023-05-21T10:42:15;25.40;65.80
37782;DHT22;23621;50.878;4.584;2023-05-21T10:56:56;26.00;65.40
37782;DHT22;23621;50.878;4.584;2023-05-21T10:59:46;26.10;65.30
37782;DHT22;23621;50.878;4.584;2023-05-21T11:02:34;26.20;64.90
37782;DHT22;23621;50.878;4.584;2023-05-21T11:05:56;26.30;64.40
37782;DHT22;23621;50.878;4.584;2023-05-21T11:08:35;26.30;64.80
37782;DHT22;23621;50.878;4.584;2023-05-21T11:11:40;26.40;64.60
37782;DHT22;23621;50.878;4.584;2023-05-21T11:17:37;26.40;64.30
37782;DHT22;23621;50.878;4.584;2023-05-21T11:20:26;26.40;64.60
37782;DHT22;23621;50.878;4.584;2023-05-21T11:23:20;26.50;64.50
37782;DHT22;23621;50.878;4.584;2023-05-21T11:26:07;26.40;64.60
37782;DHT22;23621;50.878;4.584;2023-05-21T11:32:01;26.40;64.30
37782;DHT22;23621;50.878;4.584;2023-05-21T11:34:51;26.30;64.80
37782;DHT22;23621;50.878;4.584;2023-05-21T11:37:38;26.40;64.60
37782;DHT22;23621;50.878;4.584;2023-05-21T11:40:26;26.50;64.30
37782;DHT22;23621;50.878;4.584;2023-05-21T11:43:17;26.50;63.80
37782;DHT22;23621;50.878;4.584;2023-05-21T11:46:04;26.60;64.80
37782;DHT22;23621;50.878;4.584;2023-05-21T11:48:51;26.70;64.20
37782;DHT22;23621;50.878;4.584;2023-05-21T11:51:39;26.70;64.60
37782;DHT22;23621;50.878;4.584;2023-05-21T11:54:27;26.90;64.40
37782;DHT22;23621;50.878;4.584;2023-05-21T11:57:15;26.90;64.20
37782;DHT22;23621;50.878;4.584;2023-05-21T12:00:05;27.00;63.80
37782;DHT22;23621;50.878;4.584;2023-05-21T12:02:59;27.00;63.80
37782;DHT22;23621;50.878;4.584;2023-05-21T12:05:48;27.00;63.70
37782;DHT22;23621;50.878;4.584;2023-05-21T12:08:35;27.10;64.00
37782;DHT22;23621;50.878;4.584;2023-05-21T12:11:24;27.20;63.80
37782;DHT22;23621;50.878;4.584;2023-05-21T12:14:12;27.20;63.60
37782;DHT22;23621;50.878;4.584;2023-05-21T12:17:00;27.30;63.80
37782;DHT22;23621;50.878;4.584;2023-05-21T12:19:48;27.30;63.50
37782;DHT22;23621;50.878;4.584;2023-05-21T12:22:39;27.30;63.70
37782;DHT22;23621;50.878;4.584;2023-05-21T12:25:26;27.40;63.70
37782;DHT22;23621;50.878;4.584;2023-05-21T12:28:15;27.40;63.90
37782;DHT22;23621;50.878;4.584;2023-05-21T12:31:03;27.50;63.70
37782;DHT22;23621;50.878;4.584;2023-05-21T12:33:50;27.50;63.50
37782;DHT22;23621;50.878;4.584;2023-05-21T12:36:37;27.50;63.50
37782;DHT22;23621;50.878;4.584;2023-05-21T12:39:24;27.50;63.40
37782;DHT22;23621;50.878;4.584;2023-05-21T12:42:12;27.60;63.50
37782;DHT22;23621;50.878;4.584;2023-05-21T12:45:00;27.60;63.50
37782;DHT22;23621;50.878;4.584;2023-05-21T12:47:47;27.80;63.20
37782;DHT22;23621;50.878;4.584;2023-05-21T12:50:39;27.90;63.50
37782;DHT22;23621;50.878;4.584;2023-05-21T12:53:35;28.00;63.50
37782;DHT22;23621;50.878;4.584;2023-05-21T12:56:22;28.10;64.00
37782;DHT22;23621;50.878;4.584;2023-05-21T12:59:13;28.20;63.00
37782;DHT22;23621;50.878;4.584;2023-05-21T13:02:01;28.30;62.70
37782;DHT22;23621;50.878;4.584;2023-05-21T13:04:52;28.30;62.80
37782;DHT22;23621;50.878;4.584;2023-05-21T13:07:39;28.40;62.70
37782;DHT22;23621;50.878;4.584;2023-05-21T13:10:27;28.40;62.70
37782;DHT22;23621;50.878;4.584;2023-05-21T13:13:14;28.40;62.30
37782;DHT22;23621;50.878;4.584;2023-05-21T13:16:01;28.40;62.30
37782;DHT22;23621;50.878;4.584;2023-05-21T13:18:48;28.40;62.70
37782;DHT22;23621;50.878;4.584;2023-05-21T13:21:35;28.40;62.30
37782;DHT22;23621;50.878;4.584;2023-05-21T13:24:23;28.40;62.80
37782;DHT22;23621;50.878;4.584;2023-05-21T13:27:10;28.50;62.70
37782;DHT22;23621;50.878;4.584;2023-05-21T13:29:57;28.50;62.50
37782;DHT22;23621;50.878;4.584;2023-05-21T13:32:44;28.50;62.40
37782;DHT22;23621;50.878;4.584;2023-05-21T13:35:31;28.50;62.40
37782;DHT22;23621;50.878;4.584;2023-05-21T13:38:20;28.50;62.10
37782;DHT22;23621;50.878;4.584;2023-05-21T13:41:07;28.50;62.00
37782;DHT22;23621;50.878;4.584;2023-05-21T13:43:54;28.50;62.30
37782;DHT22;23621;50.878;4.584;2023-05-21T13:46:41;28.50;62.30
37782;DHT22;23621;50.878;4.584;2023-05-21T13:49:29;28.60;62.30
37782;DHT22;23621;50.878;4.584;2023-05-21T13:52:16;28.60;62.00
37782;DHT22;23621;50.878;4.584;2023-05-21T13:55:04;28.70;62.90
37782;DHT22;23621;50.878;4.584;2023-05-21T13:57:51;28.80;62.40
37782;DHT22;23621;50.878;4.584;2023-05-21T14:00:38;28.80;62.00
37782;DHT22;23621;50.878;4.584;2023-05-21T14:03:26;28.90;62.20
37782;DHT22;23621;50.878;4.584;2023-05-21T14:06:14;28.90;61.70
37782;DHT22;23621;50.878;4.584;2023-05-21T14:09:01;29.00;62.00
37782;DHT22;23621;50.878;4.584;2023-05-21T14:11:48;29.10;62.10
37782;DHT22;23621;50.878;4.584;2023-05-21T14:14:35;29.20;62.30
37782;DHT22;23621;50.878;4.584;2023-05-21T14:17:23;29.20;61.70
37782;DHT22;23621;50.878;4.584;2023-05-21T14:20:11;29.30;61.40
37782;DHT22;23621;50.878;4.584;2023-05-21T14:22:58;29.40;61.50
37782;DHT22;23621;50.878;4.584;2023-05-21T14:25:45;29.50;61.20
37782;DHT22;23621;50.878;4.584;2023-05-21T14:28:32;29.50;61.20
37782;DHT22;23621;50.878;4.584;2023-05-21T14:31:20;29.50;60.90
37782;DHT22;23621;50.878;4.584;2023-05-21T14:34:09;29.50;60.90
37782;DHT22;23621;50.878;4.584;2023-05-21T14:36:56;29.40;61.00
37782;DHT22;23621;50.878;4.584;2023-05-21T14:39:43;29.40;61.40
37782;DHT22;23621;50.878;4.584;2023-05-21T14:42:30;29.50;61.50
37782;DHT22;23621;50.878;4.584;2023-05-21T14:45:18;29.50;61.40
37782;DHT22;23621;50.878;4.584;2023-05-21T14:48:05;29.60;61.20
37782;DHT22;23621;50.878;4.584;2023-05-21T14:50:54;29.70;61.00
37782;DHT22;23621;50.878;4.584;2023-05-21T14:53:41;29.70;61.10
37782;DHT22;23621;50.878;4.584;2023-05-21T14:56:29;29.80;61.00
37782;DHT22;23621;50.878;4.584;2023-05-21T14:59:16;29.80;60.90
37782;DHT22;23621;50.878;4.584;2023-05-21T15:02:03;29.80;60.40
37782;DHT22;23621;50.878;4.584;2023-05-21T15:04:51;29.90;60.90
37782;DHT22;23621;50.878;4.584;2023-05-21T15:07:38;29.90;59.90
37782;DHT22;23621;50.878;4.584;2023-05-21T15:10:25;30.00;59.90
37782;DHT22;23621;50.878;4.584;2023-05-21T15:13:13;30.10;60.40
37782;DHT22;23621;50.878;4.584;2023-05-21T15:16:00;30.10;60.20
37782;DHT22;23621;50.878;4.584;2023-05-21T15:18:47;30.10;60.20
37782;DHT22;23621;50.878;4.584;2023-05-21T15:21:36;30.10;60.10
37782;DHT22;23621;50.878;4.584;2023-05-21T15:24:23;30.10;60.20
37782;DHT22;23621;50.878;4.584;2023-05-21T15:27:10;30.30;60.00
37782;DHT22;23621;50.878;4.584;2023-05-21T15:29:57;30.50;60.10
37782;DHT22;23621;50.878;4.584;2023-05-21T15:32:45;30.70;59.50
37782;DHT22;23621;50.878;4.584;2023-05-21T15:35:33;30.80;59.40
37782;DHT22;23621;50.878;4.584;2023-05-21T15:38:21;31.40;59.00
37782;DHT22;23621;50.878;4.584;2023-05-21T15:41:08;32.60;58.10
37782;DHT22;23621;50.878;4.584;2023-05-21T15:43:55;33.60;57.00
37782;DHT22;23621;50.878;4.584;2023-05-21T15:46:42;34.50;56.40
37782;DHT22;23621;50.878;4.584;2023-05-21T15:49:29;35.30;55.20
37782;DHT22;23621;50.878;4.584;2023-05-21T15:52:17;36.10;54.30
37782;DHT22;23621;50.878;4.584;2023-05-21T15:55:05;36.90;53.80
37782;DHT22;23621;50.878;4.584;2023-05-21T15:57:52;37.70;53.00
37782;DHT22;23621;50.878;4.584;2023-05-21T16:00:40;38.20;52.30
37782;DHT22;23621;50.878;4.584;2023-05-21T16:03:27;38.10;52.00
37782;DHT22;23621;50.878;4.584;2023-05-21T16:06:14;37.40;52.40
37782;DHT22;23621;50.878;4.584;2023-05-21T16:09:02;37.00;52.90
37782;DHT22;23621;50.878;4.584;2023-05-21T16:11:49;36.90;52.70
37782;DHT22;23621;50.878;4.584;2023-05-21T16:14:36;36.80;52.90
37782;DHT22;23621;50.878;4.584;2023-05-21T16:17:23;36.80;52.90
37782;DHT22;23621;50.878;4.584;2023-05-21T16:20:10;37.20;52.60
37782;DHT22;23621;50.878;4.584;2023-05-21T16:22:58;37.70;52.10
37782;DHT22;23621;50.878;4.584;2023-05-21T16:25:46;38.00;51.40
37782;DHT22;23621;50.878;4.584;2023-05-21T16:28:33;37.80;51.10
37782;DHT22;23621;50.878;4.584;2023-05-21T16:31:21;37.70;51.50
37782;DHT22;23621;50.878;4.584;2023-05-21T16:34:08;38.00;51.10
37782;DHT22;23621;50.878;4.584;2023-05-21T16:36:55;38.00;50.70
37782;DHT22;23621;50.878;4.584;2023-05-21T16:39:44;37.70;49.40
37782;DHT22;23621;50.878;4.584;2023-05-21T16:42:32;37.70;51.10
37782;DHT22;23621;50.878;4.584;2023-05-21T16:45:19;38.00;50.90
37782;DHT22;23621;50.878;4.584;2023-05-21T16:48:07;38.10;50.60
37782;DHT22;23621;50.878;4.584;2023-05-21T16:50:54;38.20;50.40
37782;DHT22;23621;50.878;4.584;2023-05-21T16:53:42;38.40;50.20
37782;DHT22;23621;50.878;4.584;2023-05-21T16:56:29;38.50;49.80
37782;DHT22;23621;50.878;4.584;2023-05-21T16:59:16;38.40;50.50
37782;DHT22;23621;50.878;4.584;2023-05-21T17:02:04;38.40;50.10
37782;DHT22;23621;50.878;4.584;2023-05-21T17:04:51;38.50;49.70
37782;DHT22;23621;50.878;4.584;2023-05-21T17:07:38;38.50;49.70
37782;DHT22;23621;50.878;4.584;2023-05-21T17:10:25;38.50;49.60
37782;DHT22;23621;50.878;4.584;2023-05-21T17:13:13;38.50;49.70
37782;DHT22;23621;50.878;4.584;2023-05-21T17:16:08;38.60;49.70
37782;DHT22;23621;50.878;4.584;2023-05-21T17:18:56;38.70;49.40
37782;DHT22;23621;50.878;4.584;2023-05-21T17:21:43;38.90;49.20
37782;DHT22;23621;50.878;4.584;2023-05-21T17:24:30;39.10;48.90
37782;DHT22;23621;50.878;4.584;2023-05-21T17:27:18;39.30;48.60
37782;DHT22;23621;50.878;4.584;2023-05-21T17:30:05;39.40;48.60
37782;DHT22;23621;50.878;4.584;2023-05-21T17:32:53;39.50;49.10
37782;DHT22;23621;50.878;4.584;2023-05-21T17:35:40;39.40;48.40
37782;DHT22;23621;50.878;4.584;2023-05-21T17:38:27;39.40;48.50
37782;DHT22;23621;50.878;4.584;2023-05-21T17:41:15;39.30;48.30
37782;DHT22;23621;50.878;4.584;2023-05-21T17:44:04;39.10;48.30
37782;DHT22;23621;50.878;4.584;2023-05-21T17:46:51;38.90;48.30
37782;DHT22;23621;50.878;4.584;2023-05-21T17:49:39;38.80;48.40
37782;DHT22;23621;50.878;4.584;2023-05-21T17:52:26;38.60;48.50
37782;DHT22;23621;50.878;4.584;2023-05-21T17:55:13;38.40;48.70
37782;DHT22;23621;50.878;4.584;2023-05-21T17:58:00;38.20;48.80
37782;DHT22;23621;50.878;4.584;2023-05-21T18:00:47;37.70;48.90